Time;durP1;ratioP1;P1;durP2;ratioP2;P2;SDS_P1;SDS_P2;PMS_P1;PMS_P2;Temp;Humidity;BMP_temperature;BMP_pressure;BME280_temperature;BME280_humidity;BME280_pressure;Samples;Min_cycle;Max_cycle;Signal;HPM_P1;HPM_P2
2023/02/07 00:00:54;;;;;;;7.38;5.65;;;;;;;-4.01;100.00;94284.47;2122022;27;20611;-75
2023/02/07 00:01:56;;;;;;;6.97;5.82;;;;;;;-4.14;100.00;94284.22;2113858;28;20020;-75
2023/02/07 00:02:57;;;;;;;7.88;6.30;;;;;;;-4.23;100.00;94293.03;2118340;27;20024;-75
2023/02/07 00:03:58;;;;;;;7.47;6.18;;;;;;;-4.10;100.00;94277.34;2131416;27;20027;-75
2023/02/07 00:04:59;;;;;;;10.90;5.97;;;;;;;-4.16;100.00;94270.69;2113645;28;20075;-75
2023/02/07 00:06:09;;;;;;;9.40;5.95;;;;;;;-4.17;100.00;94279.59;2113662;28;20466;-75
2023/02/07 00:07:10;;;;;;;6.15;5.47;;;;;;;-4.14;100.00;94284.22;2131417;27;20027;-75
2023/02/07 00:08:11;;;;;;;8.73;6.40;;;;;;;-4.31;100.00;94287.44;2118048;27;20058;-75
2023/02/07 00:09:12;;;;;;;6.57;5.53;;;;;;;-4.39;100.00;94285.53;2122155;27;20047;-75
2023/02/07 00:10:15;;;;;;;7.10;5.70;;;;;;;-4.17;100.00;94287.44;2131158;27;20507;-75
2023/02/07 00:11:19;;;;;;;7.43;5.47;;;;;;;-4.16;100.00;94290.81;2130967;27;20117;-75
2023/02/07 00:12:19;;;;;;;5.65;4.90;;;;;;;-4.29;100.00;94289.75;2122275;27;20027;-75
2023/02/07 00:13:20;;;;;;;8.38;5.45;;;;;;;-4.25;100.00;94288.13;2122434;27;20357;-75
2023/02/07 00:14:21;;;;;;;7.47;5.15;;;;;;;-4.24;100.00;94288.88;2131449;27;20030;-75
2023/02/07 00:15:23;;;;;;;5.75;4.32;;;;;;;-4.12;100.00;94287.31;2131475;27;20086;-75
2023/02/07 00:16:24;;;;;;;6.25;4.72;;;;;;;-4.24;100.00;94297.47;2131330;27;20027;-75
2023/02/07 00:17:27;;;;;;;8.48;5.05;;;;;;;-4.27;100.00;94292.06;2121999;27;20064;-75
2023/02/07 00:18:28;;;;;;;7.70;4.80;;;;;;;-4.29;100.00;94286.38;2122411;27;20090;-75
2023/02/07 00:19:29;;;;;;;7.55;4.88;;;;;;;-4.27;100.00;94287.63;2131104;27;20443;-74
2023/02/07 00:20:30;;;;;;;6.13;4.95;;;;;;;-4.48;100.00;94286.50;2131443;27;20026;-74
2023/02/07 00:21:31;;;;;;;5.65;4.68;;;;;;;-4.52;100.00;94278.50;2121678;27;20042;-74
2023/02/07 00:22:32;;;;;;;6.32;4.32;;;;;;;-4.57;100.00;94295.00;2122320;27;20393;-74
2023/02/07 00:23:34;;;;;;;5.97;4.70;;;;;;;-4.46;100.00;94287.75;2131328;27;20023;-73
2023/02/07 00:24:35;;;;;;;6.03;4.47;;;;;;;-4.50;100.00;94299.84;2122115;27;20061;-73
2023/02/07 00:25:36;;;;;;;5.82;4.60;;;;;;;-4.50;100.00;94299.06;2121910;27;20464;-74
2023/02/07 00:26:37;;;;;;;6.88;5.10;;;;;;;-4.39;100.00;94292.56;2122278;27;20448;-74
2023/02/07 00:27:38;;;;;;;5.90;5.05;;;;;;;-4.43;100.00;94281.19;2122055;27;20027;-74
2023/02/07 00:28:39;;;;;;;7.05;5.40;;;;;;;-4.63;100.00;94288.34;2131180;27;20340;-74
2023/02/07 00:29:40;;;;;;;7.15;5.28;;;;;;;-4.55;100.00;94289.50;2113266;28;20028;-74
2023/02/07 00:30:42;;;;;;;6.90;5.35;;;;;;;-4.56;100.00;94290.56;2100718;28;20028;-74
2023/02/07 00:31:43;;;;;;;6.45;4.90;;;;;;;-4.68;100.00;94291.06;2121526;27;20105;-74
2023/02/07 00:32:44;;;;;;;7.70;5.85;;;;;;;-4.52;100.00;94283.72;2130789;27;20393;-75
2023/02/07 00:33:47;;;;;;;7.97;5.40;;;;;;;-4.62;100.00;94291.72;2130902;27;20452;-74
2023/02/07 00:34:49;;;;;;;8.05;5.15;;;;;;;-4.62;100.00;94300.31;2130773;27;20038;-75
2023/02/07 00:35:57;;;;;;;10.45;5.93;;;;;;;-4.61;100.00;94296.66;2131002;27;20814;-74
2023/02/07 00:36:58;;;;;;;8.35;5.00;;;;;;;-4.59;100.00;94298.97;2130918;27;21019;-74
2023/02/07 00:38:00;;;;;;;7.03;5.50;;;;;;;-4.60;100.00;94292.22;2121561;27;20049;-74
2023/02/07 00:39:11;;;;;;;9.60;5.57;;;;;;;-4.69;100.00;94302.56;2121689;27;20445;-74
2023/02/07 00:40:12;;;;;;;8.32;5.60;;;;;;;-4.72;100.00;94304.97;2116680;27;20441;-74
2023/02/07 00:41:17;;;;;;;8.98;5.97;;;;;;;-4.68;100.00;94305.94;2121881;27;20445;-74
2023/02/07 00:42:18;;;;;;;7.47;6.03;;;;;;;-4.77;100.00;94308.44;2122138;27;20112;-75
2023/02/07 00:43:19;;;;;;;9.45;6.10;;;;;;;-4.61;100.00;94311.53;2113566;28;20019;-75
2023/02/07 00:44:20;;;;;;;8.55;6.00;;;;;;;-4.67;100.00;94308.25;2122049;27;20480;-75
2023/02/07 00:45:21;;;;;;;9.38;6.07;;;;;;;-4.58;100.00;94311.72;2131332;27;20015;-74
2023/02/07 00:46:25;;;;;;;8.20;6.30;;;;;;;-4.46;100.00;94307.84;2131127;27;20375;-75
2023/02/07 00:47:26;;;;;;;9.90;6.32;;;;;;;-4.50;100.00;94312.88;2130990;27;20459;-75
2023/02/07 00:48:28;;;;;;;8.73;6.03;;;;;;;-4.28;100.00;94320.00;2131286;27;20541;-75
2023/02/07 00:49:29;;;;;;;8.98;6.25;;;;;;;-4.29;100.00;94318.47;2131362;27;20427;-75
2023/02/07 00:50:30;;;;;;;9.27;6.60;;;;;;;-4.46;100.00;94329.50;2131222;27;20444;-75
2023/02/07 00:51:32;;;;;;;9.88;6.50;;;;;;;-4.23;100.00;94321.75;2121639;27;20058;-75
2023/02/07 00:52:33;;;;;;;9.95;7.03;;;;;;;-4.31;100.00;94328.41;2122185;27;20023;-75
2023/02/07 00:53:33;;;;;;;9.73;6.53;;;;;;;-4.36;100.00;94318.09;2121978;27;20027;-75
2023/02/07 00:54:34;;;;;;;10.63;6.65;;;;;;;-4.44;100.00;94323.97;2131146;27;20105;-75
2023/02/07 00:55:35;;;;;;;8.82;6.70;;;;;;;-4.45;100.00;94318.00;2130892;27;20352;-75
2023/02/07 00:56:42;;;;;;;9.38;7.35;;;;;;;-4.39;100.00;94336.91;2127214;27;20026;-75
2023/02/07 00:57:43;;;;;;;10.82;7.13;;;;;;;-4.34;100.00;94327.19;2130953;27;20432;-75
2023/02/07 00:58:44;;;;;;;12.38;7.07;;;;;;;-4.27;100.00;94324.16;2130182;27;20609;-75
2023/02/07 00:59:45;;;;;;;10.93;6.90;;;;;;;-4.28;100.00;94330.44;2131008;27;20033;-75
2023/02/07 01:00:46;;;;;;;9.82;6.93;;;;;;;-4.22;100.00;94333.72;2122101;27;20448;-75
2023/02/07 01:01:47;;;;;;;9.38;7.03;;;;;;;-4.21;100.00;94323.00;2121482;27;20019;-74
2023/02/07 01:02:48;;;;;;;8.85;6.72;;;;;;;-4.15;100.00;94319.22;2127203;27;20039;-74
2023/02/07 01:03:50;;;;;;;9.10;6.72;;;;;;;-4.11;100.00;94303.75;2113691;28;20027;-75
2023/02/07 01:04:52;;;;;;;9.85;6.85;;;;;;;-4.24;100.00;94315.75;2114283;28;20088;-74
2023/02/07 01:05:56;;;;;;;8.18;6.63;;;;;;;-4.30;100.00;94316.94;2122814;27;20528;-78
2023/02/07 01:06:57;;;;;;;7.93;6.38;;;;;;;-4.20;100.00;94301.06;2126541;27;20506;-74
2023/02/07 01:07:58;;;;;;;10.35;7.38;;;;;;;-4.18;100.00;94295.53;2131142;27;20041;-74
2023/02/07 01:09:00;;;;;;;10.60;7.28;;;;;;;-4.24;100.00;94300.09;2131126;27;20037;-75
2023/02/07 01:10:01;;;;;;;9.00;7.28;;;;;;;-4.26;100.00;94304.03;2131109;27;20166;-74
2023/02/07 01:11:07;;;;;;;9.65;6.57;;;;;;;-4.18;100.00;94293.69;2130779;27;20361;-74
2023/02/07 01:12:07;;;;;;;11.23;6.70;;;;;;;-4.15;100.00;94298.34;2113213;28;20023;-74
2023/02/07 01:13:09;;;;;;;12.43;7.25;;;;;;;-4.31;100.00;94295.25;2104731;28;20449;-74
2023/02/07 01:14:10;;;;;;;9.63;6.93;;;;;;;-4.31;100.00;94290.03;2122112;27;20532;-74
2023/02/07 01:15:11;;;;;;;13.30;7.55;;;;;;;-4.44;100.00;94288.22;2131098;27;20042;-74
2023/02/07 01:16:21;;;;;;;9.85;6.32;;;;;;;-4.35;100.00;94293.53;2130907;27;20425;-74
2023/02/07 01:17:22;;;;;;;8.75;7.15;;;;;;;-4.46;100.00;94302.63;2130920;27;20025;-74
2023/02/07 01:18:23;;;;;;;11.05;7.05;;;;;;;-4.38;100.00;94288.91;2121580;27;20023;-74
2023/02/07 01:19:23;;;;;;;10.77;7.72;;;;;;;-4.50;100.00;94292.00;2121542;27;20047;-74
2023/02/07 01:20:25;;;;;;;10.88;7.15;;;;;;;-4.60;100.00;94290.38;2130905;27;20018;-73
2023/02/07 01:21:26;;;;;;;8.95;6.68;;;;;;;-4.61;100.00;94301.88;2121263;27;20031;-74
2023/02/07 01:22:27;;;;;;;8.90;6.55;;;;;;;-4.69;100.00;94293.97;2113163;28;20445;-74
2023/02/07 01:23:28;;;;;;;11.93;7.63;;;;;;;-4.70;100.00;94302.84;2121878;27;20445;-74
2023/02/07 01:24:30;;;;;;;10.07;6.90;;;;;;;-4.66;100.00;94301.19;2130803;27;20034;-74
2023/02/07 01:25:32;;;;;;;10.27;7.50;;;;;;;-4.73;100.00;94298.97;2121491;27;20019;-74
2023/02/07 01:26:44;;;;;;;9.43;6.13;;;;;;;-4.79;100.00;94297.50;2115441;27;20101;-74
2023/02/07 01:27:45;;;;;;;11.75;6.97;;;;;;;-4.57;100.00;94296.84;2130596;27;21073;-74
2023/02/07 01:28:47;;;;;;;8.27;6.35;;;;;;;-4.60;100.00;94295.59;2121322;27;20440;-74
2023/02/07 01:29:49;;;;;;;11.02;7.10;;;;;;;-4.80;100.00;94285.53;2121741;27;20027;-74
2023/02/07 01:30:50;;;;;;;9.32;6.43;;;;;;;-4.87;100.00;94285.19;2130888;27;20432;-73
2023/02/07 01:31:52;;;;;;;11.27;7.05;;;;;;;-4.92;100.00;94285.25;2130393;27;20455;-73
2023/02/07 01:32:53;;;;;;;10.43;7.03;;;;;;;-4.89;100.00;94290.66;2130778;27;20031;-74
2023/02/07 01:33:57;;;;;;;12.02;7.20;;;;;;;-4.88;100.00;94289.59;2130801;27;20472;-73
2023/02/07 01:34:59;;;;;;;10.90;6.88;;;;;;;-4.88;100.00;94286.22;2121568;27;20436;-73
2023/02/07 01:36:08;;;;;;;12.27;7.47;;;;;;;-5.02;100.00;94280.22;2121494;27;21084;-74
2023/02/07 01:37:09;;;;;;;13.18;7.30;;;;;;;-5.16;100.00;94293.25;2130614;27;20471;-74
2023/02/07 01:38:10;;;;;;;9.43;6.50;;;;;;;-4.86;100.00;94290.09;2130798;27;20520;-74
2023/02/07 01:39:11;;;;;;;10.80;6.68;;;;;;;-5.03;100.00;94283.91;2126393;27;20037;-75
2023/02/07 01:40:12;;;;;;;9.35;6.28;;;;;;;-4.80;100.00;94293.38;2131068;27;20034;-75
2023/02/07 01:41:14;;;;;;;10.25;6.90;;;;;;;-4.94;100.00;94303.78;2130093;27;20428;-75
2023/02/07 01:42:17;;;;;;;10.02;6.90;;;;;;;-5.14;100.00;94302.31;2130803;27;20444;-75
2023/02/07 01:43:23;;;;;;;9.68;7.00;;;;;;;-5.14;100.00;94293.72;2131092;27;20436;-74
2023/02/07 01:44:24;;;;;;;10.73;7.35;;;;;;;-5.22;100.00;94297.00;2130756;27;20432;-75
2023/02/07 01:45:35;;;;;;;11.07;7.18;;;;;;;-5.21;100.00;94283.69;2130098;27;20440;-75
2023/02/07 01:46:37;;;;;;;9.85;6.97;;;;;;;-5.10;100.00;94277.22;2130668;27;20987;-75
2023/02/07 01:47:39;;;;;;;10.20;6.78;;;;;;;-5.17;100.00;94279.44;2130879;27;20949;-75
2023/02/07 01:48:40;;;;;;;12.50;7.20;;;;;;;-5.26;100.00;94278.56;2103644;28;20449;-74
2023/02/07 01:49:42;;;;;;;10.02;7.25;;;;;;;-5.32;100.00;94282.31;2104438;28;20464;-74
2023/02/07 01:50:48;;;;;;;10.32;7.15;;;;;;;-5.30;100.00;94274.22;2105103;28;20425;-74
2023/02/07 01:51:57;;;;;;;11.18;7.47;;;;;;;-5.35;100.00;94283.66;2113713;27;20437;-74
2023/02/07 01:53:03;;;;;;;11.93;7.00;;;;;;;-5.46;100.00;94277.06;2122854;27;20916;-74
2023/02/07 01:54:08;;;;;;;12.60;7.50;;;;;;;-5.58;100.00;94280.13;2112577;28;20027;-74
2023/02/07 01:55:17;;;;;;;10.88;7.05;;;;;;;-5.39;100.00;94279.31;2114140;27;20453;-74
2023/02/07 01:56:18;;;;;;;12.20;7.53;;;;;;;-5.53;100.00;94287.09;2127326;27;20440;-75
2023/02/07 01:57:21;;;;;;;12.55;7.28;;;;;;;-5.42;100.00;94283.25;2130494;27;20436;-74
2023/02/07 01:58:23;;;;;;;10.40;7.50;;;;;;;-5.48;100.00;94288.84;2112789;28;20448;-75
2023/02/07 01:59:24;;;;;;;8.90;6.68;;;;;;;-5.58;100.00;94295.75;2112557;28;20457;-75
2023/02/07 02:00:25;;;;;;;10.48;7.13;;;;;;;-5.52;100.00;94296.47;2128301;27;20533;-75
2023/02/07 02:01:36;;;;;;;11.23;6.75;;;;;;;-5.42;100.00;94292.91;2130562;27;20515;-75
2023/02/07 02:02:39;;;;;;;10.45;7.38;;;;;;;-5.53;100.00;94292.31;2117001;27;20498;-75
2023/02/07 02:03:43;;;;;;;12.00;7.30;;;;;;;-5.60;100.00;94297.09;2121103;27;20026;-75
2023/02/07 02:04:45;;;;;;;14.75;7.15;;;;;;;-5.39;100.00;94295.72;2109835;27;20429;-74
2023/02/07 02:05:50;;;;;;;11.93;8.23;;;;;;;-5.59;100.00;94307.22;2120531;27;20510;-74
2023/02/07 02:06:52;;;;;;;13.90;8.52;;;;;;;-5.49;100.00;94313.34;2130364;27;20113;-74
2023/02/07 02:07:54;;;;;;;11.85;7.43;;;;;;;-5.27;100.00;94310.09;2130289;27;20477;-74
2023/02/07 02:08:58;;;;;;;11.02;8.23;;;;;;;-5.54;100.00;94316.03;2130243;27;21004;-74
2023/02/07 02:10:00;;;;;;;11.68;7.97;;;;;;;-5.60;100.00;94313.50;2129784;27;20528;-74
2023/02/07 02:11:28;;;;;;;11.30;7.28;;;;;;;-5.60;100.00;94315.34;2120658;27;20478;-74
2023/02/07 02:13:19;;;;;;;10.00;6.95;;;;;;;-5.70;100.00;94302.47;2124927;27;20957;-74
2023/02/07 02:14:19;;;;;;;;;;;;;;;-5.74;100.00;94306.72;2101056;27;20605;-74
2023/02/07 02:15:24;;;;;;;10.02;6.50;;;;;;;-5.74;100.00;94304.88;2130399;27;19907;-75
2023/02/07 02:16:35;;;;;;;11.20;6.97;;;;;;;-5.76;100.00;94314.00;2129772;27;20027;-74
2023/02/07 02:18:58;;;;;;;;;;;;;;;-5.75;100.00;94324.16;2146684;27;20113;-74
2023/02/07 02:20:34;;;;;;;9.90;6.50;;;;;;;-5.86;100.00;94318.31;2138968;27;19942;-75
2023/02/07 02:21:50;;;;;;;10.18;6.35;;;;;;;-5.69;100.00;94314.44;2136941;27;21152;-74
2023/02/07 02:23:03;;;;;;;10.35;7.13;;;;;;;-5.83;100.00;94319.59;2130974;27;20507;-74
2023/02/07 02:24:26;;;;;;;13.40;7.40;;;;;;;-5.87;100.00;94316.78;2137940;27;20470;-75
2023/02/07 02:25:45;;;;;;;11.75;7.47;;;;;;;-5.85;100.00;94322.47;2135916;27;20521;-75
2023/02/07 02:27:21;;;;;;;10.52;7.82;;;;;;;-5.89;100.00;94318.09;2134092;27;20430;-75
2023/02/07 02:28:59;;;;;;;11.35;7.65;;;;;;;-5.91;100.00;94333.25;2121807;27;20443;-74
2023/02/07 02:30:18;;;;;;;15.38;8.65;;;;;;;-5.83;100.00;94343.78;2132840;27;20420;-75
2023/02/07 02:31:52;;;;;;;12.88;7.90;;;;;;;-5.93;100.00;94340.56;2134332;27;20487;-75
2023/02/07 02:32:55;;;;;;;13.32;8.23;;;;;;;-5.90;100.00;94342.59;2125912;27;20519;-75
2023/02/07 02:34:06;;;;;;;14.70;9.02;;;;;;;-5.89;100.00;94337.09;2129094;27;20436;-75
2023/02/07 02:35:16;;;;;;;14.27;8.80;;;;;;;-5.81;100.00;94333.09;2138207;27;20435;-74
2023/02/07 02:36:26;;;;;;;14.25;9.73;;;;;;;-5.71;100.00;94338.13;2112643;28;20538;-74
2023/02/07 02:37:49;;;;;;;14.35;9.88;;;;;;;-5.64;100.00;94340.41;2120664;27;20039;-75
2023/02/07 02:38:57;;;;;;;18.52;9.95;;;;;;;-5.84;100.00;94339.66;2125700;27;20038;-75
2023/02/07 02:40:08;;;;;;;16.90;10.15;;;;;;;-5.98;100.00;94336.22;2129675;27;20830;-74
2023/02/07 02:41:11;;;;;;;;;;;;;;;-5.78;100.00;94335.13;2129211;27;20521;-75
2023/02/07 02:42:34;;;;;;;18.58;9.75;;;;;;;-5.87;100.00;94335.00;2121667;27;19959;-75
2023/02/07 02:43:52;;;;;;;17.75;11.95;;;;;;;-6.00;100.00;94332.34;2131996;27;20484;-74
2023/02/07 02:44:57;;;;;;;21.63;12.48;;;;;;;-6.04;100.00;94332.13;2135125;27;20965;-74
2023/02/07 02:46:06;;;;;;;22.58;13.40;;;;;;;-6.00;100.00;94325.31;2137571;27;20428;-73
2023/02/07 02:47:10;;;;;;;23.10;13.45;;;;;;;-5.98;100.00;94330.22;2137792;27;20466;-73
2023/02/07 02:48:13;;;;;;;23.00;14.63;;;;;;;-5.95;100.00;94324.47;2137555;27;20432;-74
2023/02/07 02:49:17;;;;;;;25.15;14.52;;;;;;;-5.96;100.00;94320.34;2129121;27;20421;-73
2023/02/07 02:50:23;;;;;;;24.95;14.80;;;;;;;-5.86;100.00;94315.72;2124555;27;20506;-73
2023/02/07 02:51:33;;;;;;;23.08;14.40;;;;;;;-5.99;100.00;94315.69;2130293;27;21334;-74
2023/02/07 02:52:35;;;;;;;27.42;16.42;;;;;;;-5.98;100.00;94319.81;2137484;27;20496;-74
2023/02/07 02:53:36;;;;;;;30.13;16.25;;;;;;;-6.07;100.00;94318.91;2137447;27;20432;-74
2023/02/07 02:54:39;;;;;;;27.50;16.15;;;;;;;-6.08;100.00;94315.53;2137750;27;20416;-74
2023/02/07 02:56:11;;;;;;;26.75;16.02;;;;;;;-6.16;100.00;94323.97;2137810;27;20447;-74
2023/02/07 02:57:44;;;;;;;28.88;15.93;;;;;;;-6.02;100.00;94322.22;2133569;27;20431;-74
2023/02/07 02:58:51;;;;;;;29.60;16.60;;;;;;;-5.83;100.00;94317.75;2134186;27;20953;-74
2023/02/07 03:00:32;;;;;;;34.03;16.95;;;;;;;-6.10;100.00;94315.84;2137674;27;20427;-75
2023/02/07 03:02:19;;;;;;;29.63;16.55;;;;;;;-6.14;100.00;94320.06;2133453;27;20415;-75
2023/02/07 03:03:38;;;;;;;32.30;17.10;;;;;;;-6.22;100.00;94328.47;2129339;27;20043;-74
2023/02/07 03:05:03;;;;;;;32.28;17.42;;;;;;;-6.23;100.00;94320.94;2137563;27;20396;-75
2023/02/07 03:06:27;;;;;;;28.45;17.40;;;;;;;-6.31;100.00;94332.00;2119122;28;20027;-75
2023/02/07 03:07:40;;;;;;;34.10;17.70;;;;;;;-6.28;100.00;94323.59;2114839;27;20439;-75
2023/02/07 03:08:59;;;;;;;33.58;17.77;;;;;;;-6.28;100.00;94329.59;2133354;27;20626;-75
2023/02/07 03:10:31;;;;;;;37.33;18.67;;;;;;;-6.28;100.00;94331.41;2137616;27;20440;-75
2023/02/07 03:11:40;;;;;;;30.33;17.48;;;;;;;-6.22;100.00;94332.91;2135790;27;21492;-74
2023/02/07 03:12:58;;;;;;;31.23;17.42;;;;;;;-6.27;100.00;94341.56;2128680;27;20451;-75
2023/02/07 03:14:37;;;;;;;31.85;17.63;;;;;;;-6.21;100.00;94348.22;2130893;27;20054;-74
2023/02/07 03:15:50;;;;;;;29.00;17.15;;;;;;;-6.27;100.00;94341.56;2127851;27;20451;-75
2023/02/07 03:17:08;;;;;;;29.85;16.42;;;;;;;-6.30;100.00;94349.13;2127097;27;20497;-75
2023/02/07 03:18:26;;;;;;;35.35;16.88;;;;;;;-6.31;100.00;94348.38;2137317;27;21006;-74
2023/02/07 03:19:35;;;;;;;30.02;16.08;;;;;;;-6.36;100.00;94351.81;2113532;28;20442;-74
2023/02/07 03:20:45;;;;;;;34.45;17.45;;;;;;;-6.37;100.00;94354.66;2121711;27;20493;-74
2023/02/07 03:21:58;;;;;;;37.88;17.45;;;;;;;-6.30;100.00;94357.72;2123796;27;20965;-75
2023/02/07 03:23:01;;;;;;;33.08;17.60;;;;;;;-6.13;100.00;94362.44;2129603;27;20435;-74
2023/02/07 03:24:12;;;;;;;31.52;17.65;;;;;;;-6.18;100.00;94355.47;2137372;27;20595;-75
2023/02/07 03:25:16;;;;;;;34.25;18.02;;;;;;;-6.14;100.00;94372.09;2137428;27;20443;-74
2023/02/07 03:26:24;;;;;;;32.05;17.25;;;;;;;-6.22;100.00;94374.53;2137385;27;20439;-75
2023/02/07 03:27:29;;;;;;;32.95;18.05;;;;;;;-6.29;100.00;94374.88;2137550;27;20046;-74
2023/02/07 03:28:32;;;;;;;32.53;17.02;;;;;;;-6.29;100.00;94380.06;2128438;27;20428;-74
2023/02/07 03:29:38;;;;;;;30.25;17.40;;;;;;;-6.11;100.00;94381.16;2118241;28;20441;-74
2023/02/07 03:30:41;;;;;;;29.60;17.20;;;;;;;-6.13;100.00;94373.63;2123207;27;20527;-74
2023/02/07 03:31:47;;;;;;;33.35;16.92;;;;;;;-6.10;100.00;94372.31;2110186;28;20581;-74
2023/02/07 03:32:52;;;;;;;27.50;15.77;;;;;;;-6.11;100.00;94376.72;2114978;27;20475;-74
2023/02/07 03:34:01;;;;;;;24.95;14.85;;;;;;;-6.18;100.00;94381.50;2129333;27;20463;-74
2023/02/07 03:35:11;;;;;;;28.02;15.45;;;;;;;-6.02;100.00;94369.06;2131798;27;20467;-74
2023/02/07 03:36:28;;;;;;;27.83;16.02;;;;;;;-6.10;100.00;94378.28;2127456;27;20428;-73
2023/02/07 03:37:36;;;;;;;29.00;16.02;;;;;;;-6.21;100.00;94379.44;2122207;27;20042;-74
2023/02/07 03:38:38;;;;;;;30.65;15.13;;;;;;;-6.12;100.00;94380.38;2123214;27;20885;-74
2023/02/07 03:39:39;;;;;;;29.92;14.95;;;;;;;-6.15;100.00;94383.53;2131394;27;20467;-74
2023/02/07 03:40:48;;;;;;;26.70;14.82;;;;;;;-6.12;100.00;94390.78;2122240;27;20456;-75
2023/02/07 03:42:03;;;;;;;24.02;14.75;;;;;;;-6.10;100.00;94399.09;2123350;27;20472;-74
2023/02/07 03:43:09;;;;;;;27.10;14.82;;;;;;;-6.12;100.00;94397.81;2131741;27;20455;-75
2023/02/07 03:44:13;;;;;;;25.30;14.77;;;;;;;-6.07;100.00;94402.19;2131639;27;20440;-75
2023/02/07 03:45:18;;;;;;;26.38;13.68;;;;;;;-5.96;100.00;94393.97;2114166;28;20449;-75
2023/02/07 03:46:36;;;;;;;25.30;14.80;;;;;;;-5.98;100.00;94397.91;2124169;27;20425;-75
2023/02/07 03:47:37;;;;;;;25.90;13.95;;;;;;;-6.16;100.00;94400.19;2131491;27;20976;-75
2023/02/07 03:48:39;;;;;;;24.83;14.82;;;;;;;-5.95;100.00;94390.31;2131812;27;20440;-75
2023/02/07 03:49:40;;;;;;;22.10;13.60;;;;;;;-5.99;100.00;94397.13;2131375;27;20435;-74
2023/02/07 03:50:42;;;;;;;23.23;13.32;;;;;;;-6.07;100.00;94396.97;2122129;27;20433;-75
2023/02/07 03:51:43;;;;;;;23.13;12.70;;;;;;;-6.03;100.00;94400.56;2113452;27;20434;-74
2023/02/07 03:52:46;;;;;;;22.88;14.13;;;;;;;-6.11;100.00;94396.75;2114093;27;20970;-74
2023/02/07 03:53:46;;;;;;;21.00;13.48;;;;;;;-6.21;100.00;94402.88;2122420;27;20500;-74
2023/02/07 03:54:47;;;;;;;19.85;13.25;;;;;;;-6.21;100.00;94413.28;2130664;27;20031;-74
2023/02/07 03:55:48;;;;;;;28.27;14.10;;;;;;;-6.17;100.00;94414.28;2122068;27;20027;-73
2023/02/07 03:56:49;;;;;;;23.52;12.85;;;;;;;-6.20;100.00;94414.81;2122341;27;20015;-74
2023/02/07 03:57:50;;;;;;;21.77;12.73;;;;;;;-6.16;100.00;94425.44;2122191;27;20718;-73
2023/02/07 03:58:51;;;;;;;20.17;11.13;;;;;;;-6.22;100.00;94414.34;2122624;27;20409;-73
2023/02/07 03:59:52;;;;;;;23.40;12.48;;;;;;;-6.28;100.00;94415.44;2131710;27;20022;-73
2023/02/07 04:00:54;;;;;;;23.02;12.40;;;;;;;-6.23;100.00;94420.59;2131385;27;20318;-73
2023/02/07 04:01:56;;;;;;;20.65;12.32;;;;;;;-6.18;100.00;94417.94;2131481;27;20436;-74
2023/02/07 04:02:57;;;;;;;19.40;11.90;;;;;;;-6.29;100.00;94413.13;2115513;27;20456;-73
2023/02/07 04:03:58;;;;;;;19.27;11.88;;;;;;;-6.31;100.00;94412.63;2114006;28;20469;-73
2023/02/07 04:04:59;;;;;;;22.23;12.15;;;;;;;-6.37;100.00;94417.88;2122183;27;20035;-73
2023/02/07 04:06:01;;;;;;;17.13;11.32;;;;;;;-6.18;100.00;94417.94;2122433;27;20575;-73
2023/02/07 04:07:03;;;;;;;17.20;10.85;;;;;;;-6.14;100.00;94412.94;2131142;27;20444;-73
2023/02/07 04:08:05;;;;;;;15.10;10.48;;;;;;;-6.26;100.00;94415.16;2131341;27;20532;-73
2023/02/07 04:09:06;;;;;;;15.63;10.60;;;;;;;-6.29;100.00;94408.69;2122504;27;20460;-73
2023/02/07 04:10:09;;;;;;;18.98;10.52;;;;;;;-6.39;100.00;94409.56;2122326;27;20464;-73
2023/02/07 04:11:11;;;;;;;34.30;17.05;;;;;;;-6.36;100.00;94410.84;2131198;27;20416;-73
2023/02/07 04:12:12;;;;;;;30.25;16.02;;;;;;;-6.39;100.00;94408.81;2127461;27;20436;-73
2023/02/07 04:13:13;;;;;;;36.03;18.02;;;;;;;-6.41;100.00;94418.69;2122033;27;20448;-74
2023/02/07 04:14:14;;;;;;;45.28;21.63;;;;;;;-6.30;100.00;94417.53;2122364;27;20031;-74
2023/02/07 04:15:15;;;;;;;27.25;14.50;;;;;;;-6.32;100.00;94406.66;2131644;27;20172;-74
2023/02/07 04:16:16;;;;;;;19.45;11.50;;;;;;;-6.26;100.00;94412.56;2131402;27;20484;-74
2023/02/07 04:17:17;;;;;;;19.08;11.93;;;;;;;-6.35;100.00;94413.19;2131518;27;20018;-74
2023/02/07 04:18:20;;;;;;;17.73;11.30;;;;;;;-6.37;100.00;94415.25;2131381;27;20487;-75
2023/02/07 04:19:21;;;;;;;17.98;10.95;;;;;;;-6.37;100.00;94409.28;2131693;27;20524;-74
2023/02/07 04:20:22;;;;;;;17.10;11.07;;;;;;;-6.46;100.00;94411.72;2131393;27;20463;-74
2023/02/07 04:21:24;;;;;;;15.13;10.85;;;;;;;-6.46;100.00;94413.56;2131220;27;21008;-74
2023/02/07 04:22:33;;;;;;;23.75;14.55;;;;;;;-6.37;100.00;94409.28;2131509;27;20104;-74
2023/02/07 04:23:35;;;;;;;24.98;14.85;;;;;;;-6.43;100.00;94407.81;2122162;27;20027;-74
2023/02/07 04:24:36;;;;;;;24.67;14.60;;;;;;;-6.41;100.00;94406.50;2114028;28;20528;-75
2023/02/07 04:25:37;;;;;;;21.80;14.35;;;;;;;-6.44;100.00;94408.88;2122221;27;20440;-74
2023/02/07 04:26:38;;;;;;;18.13;12.70;;;;;;;-6.38;100.00;94420.75;2122098;27;20120;-74
2023/02/07 04:27:39;;;;;;;21.92;12.82;;;;;;;-6.37;100.00;94417.09;2122182;27;20448;-74
2023/02/07 04:28:42;;;;;;;20.98;13.45;;;;;;;-6.37;100.00;94415.25;2121919;27;20447;-74
2023/02/07 04:29:43;;;;;;;27.02;15.32;;;;;;;-6.34;100.00;94406.91;2122229;27;20436;-74
2023/02/07 04:30:45;;;;;;;22.15;15.48;;;;;;;-6.38;100.00;94412.94;2122269;27;20441;-74
2023/02/07 04:31:46;;;;;;;18.02;12.52;;;;;;;-6.49;100.00;94412.28;2122275;27;20439;-74
2023/02/07 04:32:47;;;;;;;19.77;11.73;;;;;;;-6.50;100.00;94418.53;2122055;27;20449;-74
2023/02/07 04:33:48;;;;;;;16.77;11.90;;;;;;;-6.50;100.00;94409.94;2113579;28;20433;-74
2023/02/07 04:34:49;;;;;;;19.30;12.68;;;;;;;-6.38;100.00;94407.75;2121888;27;20459;-74
2023/02/07 04:35:58;;;;;;;21.52;14.90;;;;;;;-6.40;100.00;94415.84;2122029;27;20453;-74
2023/02/07 04:36:59;;;;;;;19.95;13.68;;;;;;;-6.43;100.00;94416.38;2122822;27;20852;-74
2023/02/07 04:38:00;;;;;;;20.05;12.60;;;;;;;-6.38;100.00;94413.72;2122191;27;20421;-74
2023/02/07 04:39:02;;;;;;;17.92;11.75;;;;;;;-6.41;100.00;94410.91;2113851;28;20499;-74
2023/02/07 04:40:04;;;;;;;20.83;12.30;;;;;;;-6.53;100.00;94418.31;2122137;27;20476;-74
2023/02/07 04:41:11;;;;;;;17.67;11.15;;;;;;;-6.62;100.00;94418.94;2130656;27;20547;-74
2023/02/07 04:42:12;;;;;;;15.63;11.07;;;;;;;-6.67;100.00;94411.19;2126178;27;20463;-74
2023/02/07 04:43:13;;;;;;;16.98;11.50;;;;;;;-6.60;100.00;94410.84;2131375;27;21013;-73
2023/02/07 04:44:14;;;;;;;16.88;11.63;;;;;;;-6.65;100.00;94416.88;2131144;27;20436;-73
2023/02/07 04:45:15;;;;;;;16.13;11.30;;;;;;;-6.56;100.00;94416.28;2131637;27;20022;-73
2023/02/07 04:46:16;;;;;;;15.63;11.07;;;;;;;-6.65;100.00;94418.69;2131582;27;20034;-73
2023/02/07 04:47:33;;;;;;;31.85;17.60;;;;;;;-6.75;100.00;94416.19;2130887;27;20038;-73
2023/02/07 04:48:36;;;;;;;124.97;51.55;;;;;;;-6.32;100.00;94406.66;2121724;27;20440;-73
2023/02/07 04:49:37;;;;;;;125.00;54.17;;;;;;;-6.50;100.00;94420.34;2122430;27;20775;-73
2023/02/07 04:50:38;;;;;;;97.20;45.65;;;;;;;-6.57;100.00;94414.72;2131247;27;20460;-74
2023/02/07 04:51:39;;;;;;;167.93;67.95;;;;;;;-6.55;100.00;94410.00;2121705;27;20030;-73
2023/02/07 04:52:40;;;;;;;104.15;46.70;;;;;;;-6.62;100.00;94412.94;2113713;28;20042;-74
2023/02/07 04:53:41;;;;;;;108.25;48.83;;;;;;;-6.72;100.00;94413.81;2121939;27;20437;-73
2023/02/07 04:54:42;;;;;;;49.33;26.52;;;;;;;-6.79;100.00;94412.59;2121859;27;20026;-73
2023/02/07 04:55:47;;;;;;;37.95;22.05;;;;;;;-6.88;100.00;94421.00;2122513;27;20429;-74
2023/02/07 04:56:48;;;;;;;30.23;18.10;;;;;;;-6.86;100.00;94418.09;2131296;27;20023;-73
2023/02/07 04:57:49;;;;;;;19.80;13.93;;;;;;;-6.89;100.00;94414.25;2131522;27;20436;-74
2023/02/07 04:58:50;;;;;;;21.63;13.25;;;;;;;-6.84;100.00;94416.03;2122101;27;20380;-73
2023/02/07 04:59:52;;;;;;;17.77;12.20;;;;;;;-6.81;100.00;94409.50;2122465;27;20489;-72
2023/02/07 05:00:53;;;;;;;17.55;12.02;;;;;;;-6.81;100.00;94406.88;2121858;27;20547;-72
2023/02/07 05:01:54;;;;;;;15.48;11.20;;;;;;;-6.84;100.00;94408.22;2123968;27;20060;-74
2023/02/07 05:02:55;;;;;;;19.42;11.50;;;;;;;-6.49;100.00;94390.72;2128871;27;20408;-73